Terminal Aerodrome Forecast
Issued by NWS

Home | Current Version | Previous Version | Text Only | Print | Product List | Glossary On
Versions: 1 2 3 4 5 6 7 8 9 10 11 12 13 14 15 16
977
FTUS43 KGRB 290520
TAFAUW
TAF
KAUW 290520Z 2906/3006 19007KT P6SM SCT020 BKN045
      TEMPO 2908/2912 4SM -SHRA BKN020
     FM291200 21005KT 6SM -SHRA BKN020
     FM291400 24006KT 5SM -SHRA OVC015
     FM291800 26011KT P6SM -SHRA BKN025
     FM292000 26012KT P6SM VCSH BKN035
     FM300000 28009KT P6SM SCT050
     FM300200 27006KT P6SM SCT150=

USA.gov is the U.S. government's official web portal to all federal, state and local government web resources and services.